Terminal Aerodrome Forecast
Issued by NWS

Home | Current Version | Previous Version | Text Only | Print | Product List | Glossary On
Versions: 1 2 3 4 5 6 7 8 9 10 11 12 13 14 15 16 17 18 19 20
000
FTUS43 KSGF 070500
TAFBBG
TAF
KBBG 070536Z 0706/0806 19004KT P6SM SCT040 BKN100 WS020/23035KT
     FM070900 18004KT 6SM -SHRA BR SCT030 OVC050 WS020/23035KT
      TEMPO 0710/0714 5SM TSRA SCT010 OVC025CB
     FM071400 21006KT 6SM -SHRA BR BKN012 OVC025
     FM080000 16005KT 5SM -SHRA SCT007 OVC015=

USA.gov is the U.S. government's official web portal to all federal, state and local government web resources and services.